Time;durP1;ratioP1;P1;durP2;ratioP2;P2;SDS_P1;SDS_P2;PMS_P1;PMS_P2;Temp;Humidity;BMP_temperature;BMP_pressure;BME280_temperature;BME280_humidity;BME280_pressure;Samples;Min_cycle;Max_cycle;Signal;HPM_P1;HPM_P2
2021/04/09 00:02:21;;;;;;;14.85;7.50;;;;;;;0.11;74.43;99913.64;1789622;79;21494;-63
2021/04/09 00:04:48;;;;;;;9.98;6.97;;;;;;;0.15;74.47;99916.66;1789677;79;22261;-63
2021/04/09 00:07:17;;;;;;;12.18;7.60;;;;;;;0.20;74.51;99920.95;1789534;79;21050;-63
2021/04/09 00:09:45;;;;;;;10.63;7.72;;;;;;;0.26;74.46;99918.86;1789527;80;21113;-63
2021/04/09 00:12:13;;;;;;;10.82;7.85;;;;;;;0.31;74.35;99915.92;1789555;79;21097;-63
2021/04/09 00:14:42;;;;;;;9.63;7.90;;;;;;;0.36;74.33;99923.63;1789584;80;21157;-63
2021/04/09 00:17:10;;;;;;;12.28;8.60;;;;;;;0.41;74.30;99925.36;1789590;80;22837;-63
2021/04/09 00:19:38;;;;;;;9.85;8.35;;;;;;;0.44;74.22;99933.05;1789519;80;21074;-63
2021/04/09 00:22:06;;;;;;;10.95;7.85;;;;;;;0.49;74.24;99933.09;1789547;79;21573;-64
2021/04/09 00:24:34;;;;;;;8.83;7.55;;;;;;;0.53;74.12;99934.41;1789556;80;21110;-63
2021/04/09 00:27:03;;;;;;;10.58;8.25;;;;;;;0.60;73.94;99936.14;1789590;80;21573;-63
2021/04/09 00:29:30;;;;;;;16.50;10.15;;;;;;;0.66;73.84;99937.89;1789595;80;22440;-63
2021/04/09 00:31:58;;;;;;;15.30;9.58;;;;;;;0.70;73.56;99933.22;1789390;80;21147;-63
2021/04/09 00:34:26;;;;;;;13.78;9.20;;;;;;;0.73;73.40;99942.20;1789612;80;21121;-63
2021/04/09 00:36:53;;;;;;;14.10;9.08;;;;;;;0.72;73.31;99939.21;1789533;79;21594;-63
2021/04/09 00:39:21;;;;;;;18.98;9.38;;;;;;;0.75;73.20;99944.78;1789559;78;21711;-63
2021/04/09 00:41:48;;;;;;;16.10;9.53;;;;;;;0.72;73.06;99949.45;1789537;80;21194;-63
2021/04/09 00:44:18;;;;;;;16.40;9.53;;;;;;;0.69;73.10;99951.99;1789516;79;21074;-63
2021/04/09 00:46:46;;;;;;;17.55;9.93;;;;;;;0.64;73.15;99950.67;1789543;79;21121;-63
2021/04/09 00:49:13;;;;;;;22.42;9.95;;;;;;;0.59;73.23;99954.08;1789539;79;21570;-63
2021/04/09 00:51:41;;;;;;;16.23;9.03;;;;;;;0.53;73.39;99950.19;1789641;80;21569;-63
2021/04/09 00:54:09;;;;;;;16.27;7.90;;;;;;;0.46;73.59;99955.68;1789585;79;21198;-63
2021/04/09 00:56:37;;;;;;;10.35;7.45;;;;;;;0.41;73.68;99951.37;1789470;80;21917;-63
2021/04/09 00:59:05;;;;;;;11.55;7.80;;;;;;;0.34;73.77;99955.18;1789546;79;21468;-63
2021/04/09 01:01:33;;;;;;;15.98;9.18;;;;;;;0.32;73.95;99959.84;1789543;80;21169;-63
2021/04/09 01:04:00;;;;;;;12.37;8.78;;;;;;;0.29;74.08;99958.13;1789543;78;21495;-64
2021/04/09 01:06:28;;;;;;;10.98;7.35;;;;;;;0.27;74.19;99963.64;1765734;80;22087;-63
2021/04/09 01:08:56;;;;;;;11.83;7.78;;;;;;;0.26;74.20;99959.80;1789501;80;21566;-63
2021/04/09 01:11:23;;;;;;;16.27;9.73;;;;;;;0.23;74.37;99962.32;1789479;79;21574;-63
2021/04/09 01:13:52;;;;;;;17.62;10.48;;;;;;;0.22;74.52;99958.91;1789522;80;21177;-63
2021/04/09 01:16:51;;;;;;;17.87;9.48;;;;;;;0.24;74.62;99962.76;1789610;80;21506;-63
2021/04/09 01:19:40;;;;;;;13.98;9.53;;;;;;;0.27;74.77;99970.46;1789586;79;21511;-62
2021/04/09 01:22:08;;;;;;;12.73;8.78;;;;;;;0.30;74.85;99969.21;1782393;80;21082;-62
2021/04/09 01:24:54;;;;;;;11.73;8.70;;;;;;;0.31;74.86;99969.23;1789486;79;21035;-62
2021/04/09 01:28:07;;;;;;;33.95;9.50;;;;;;;0.36;74.89;99969.27;1789563;78;21499;-63
2021/04/09 01:31:27;;;;;;;17.15;8.50;;;;;;;0.37;74.88;99965.01;1776001;80;21582;-63
2021/04/09 01:33:57;;;;;;;14.55;9.40;;;;;;;0.38;74.90;99977.81;1777938;80;23459;-63
2021/04/09 01:36:35;;;;;;;14.90;9.05;;;;;;;0.41;75.09;99975.25;1762135;80;21109;-63
2021/04/09 01:39:14;;;;;;;14.43;9.50;;;;;;;0.48;75.16;99985.13;1792130;80;21605;-62
2021/04/09 01:41:43;;;;;;;12.88;8.30;;;;;;;0.57;75.16;99983.50;1791641;80;21478;-63
2021/04/09 01:44:11;;;;;;;17.90;7.85;;;;;;;0.66;75.14;99987.80;1792031;79;21483;-63
2021/04/09 01:46:42;;;;;;;10.98;7.85;;;;;;;0.73;75.05;99984.88;1792007;80;21300;-64
2021/04/09 01:49:10;;;;;;;9.58;7.00;;;;;;;0.82;74.98;99988.75;1791973;80;21078;-63
2021/04/09 01:51:38;;;;;;;9.13;7.40;;;;;;;0.95;74.74;99993.98;1792038;80;21463;-64
2021/04/09 01:54:07;;;;;;;10.68;7.53;;;;;;;1.07;74.45;99997.02;1791990;79;21156;-63
2021/04/09 01:56:34;;;;;;;8.53;7.05;;;;;;;1.16;74.23;99998.36;1765926;80;21097;-63
2021/04/09 01:59:02;;;;;;;11.45;8.10;;;;;;;1.25;73.87;100000.08;1791976;80;22325;-63
2021/04/09 02:01:31;;;;;;;9.80;7.80;;;;;;;1.29;73.73;99999.25;1791957;80;21058;-63
2021/04/09 02:03:59;;;;;;;11.10;8.58;;;;;;;1.34;73.47;100001.42;1791998;78;21073;-63
2021/04/09 02:06:26;;;;;;;11.73;8.20;;;;;;;1.35;73.36;100001.43;1792045;80;21557;-63
2021/04/09 02:08:54;;;;;;;11.97;8.00;;;;;;;1.36;73.31;100002.28;1791960;80;21641;-63
2021/04/09 02:11:22;;;;;;;10.70;8.28;;;;;;;1.35;73.21;100008.27;1791952;80;21202;-63
2021/04/09 02:13:50;;;;;;;10.72;8.03;;;;;;;1.35;73.25;100006.55;1792046;78;21058;-63
2021/04/09 02:16:19;;;;;;;9.90;7.42;;;;;;;1.37;73.24;100010.41;1791987;80;21089;-63
2021/04/09 02:18:47;;;;;;;9.50;8.00;;;;;;;1.34;73.34;100012.95;1791910;78;21050;-63
2021/04/09 02:21:15;;;;;;;9.53;7.83;;;;;;;1.29;73.50;100012.06;1791999;80;21153;-63
2021/04/09 02:23:42;;;;;;;10.35;8.28;;;;;;;1.28;73.64;100015.05;1791974;80;22592;-63
2021/04/09 02:26:10;;;;;;;8.63;7.75;;;;;;;1.30;73.67;100015.92;1791900;78;21066;-63
2021/04/09 02:28:39;;;;;;;10.38;7.53;;;;;;;1.30;73.56;100022.33;1791965;80;21042;-63
2021/04/09 02:31:09;;;;;;;11.57;8.30;;;;;;;1.25;73.62;100024.00;1791909;80;21538;-63
2021/04/09 02:33:36;;;;;;;9.33;7.67;;;;;;;1.21;73.77;100023.97;1791637;78;21089;-64
2021/04/09 02:36:20;;;;;;;12.88;8.23;;;;;;;1.20;73.87;100029.52;1791730;80;22412;-63
2021/04/09 02:38:53;;;;;;;10.82;7.95;;;;;;;1.20;74.07;100034.64;1791776;80;21082;-62
2021/04/09 02:41:24;;;;;;;8.20;7.12;;;;;;;1.20;74.11;100032.08;1791762;80;21494;-62
2021/04/09 02:43:51;;;;;;;14.80;9.48;;;;;;;1.21;74.23;100040.20;1791683;80;21455;-64
2021/04/09 02:46:40;;;;;;;10.85;8.80;;;;;;;1.15;74.32;100035.07;1791837;79;21538;-64
2021/04/09 02:49:17;;;;;;;11.95;9.18;;;;;;;1.12;74.52;100040.17;1791765;80;21449;-64
2021/04/09 02:51:44;;;;;;;12.13;8.95;;;;;;;1.11;74.68;100044.86;1791648;80;21110;-64
2021/04/09 02:54:16;;;;;;;9.88;8.13;;;;;;;1.10;74.87;100050.83;1791744;78;21054;-64
2021/04/09 02:56:44;;;;;;;11.55;8.20;;;;;;;1.11;75.03;100046.56;1791717;80;21061;-63
2021/04/09 02:59:13;;;;;;;11.25;8.55;;;;;;;1.14;75.07;100055.55;1791741;80;21463;-63
2021/04/09 03:01:42;;;;;;;9.65;8.00;;;;;;;1.14;75.10;100060.25;1791818;80;22355;-63
2021/04/09 03:04:11;;;;;;;8.93;7.12;;;;;;;1.17;75.16;100060.28;1791679;78;21085;-62
2021/04/09 03:06:43;;;;;;;11.55;8.43;;;;;;;1.21;75.10;100062.41;1791779;80;21470;-62
2021/04/09 03:09:10;;;;;;;9.58;8.00;;;;;;;1.21;75.21;100063.27;1791714;78;21230;-62
2021/04/09 03:11:43;;;;;;;9.45;7.78;;;;;;;1.24;75.20;100064.99;1791852;80;21466;-62
2021/04/09 03:14:11;;;;;;;10.10;8.05;;;;;;;1.27;75.21;100067.58;1792005;80;22125;-62
2021/04/09 03:16:43;;;;;;;10.72;8.35;;;;;;;1.32;75.20;100077.02;1791893;80;21066;-62
2021/04/09 03:19:11;;;;;;;9.57;7.57;;;;;;;1.38;75.11;100071.92;1792097;78;21038;-62
2021/04/09 03:21:39;;;;;;;11.12;7.80;;;;;;;1.43;75.15;100071.06;1791856;80;21149;-63
2021/04/09 03:24:08;;;;;;;11.85;8.83;;;;;;;1.48;75.17;100072.81;1791867;80;21054;-63
2021/04/09 03:26:36;;;;;;;10.68;8.15;;;;;;;1.51;75.04;100077.10;1792026;80;22344;-63
2021/04/09 03:29:04;;;;;;;11.38;8.35;;;;;;;1.51;75.01;100079.66;1791788;80;21145;-63
2021/04/09 03:31:31;;;;;;;13.05;8.65;;;;;;;1.54;75.01;100082.25;1791795;80;21458;-63
2021/04/09 03:33:59;;;;;;;13.28;9.03;;;;;;;1.57;74.97;100090.81;1790106;78;21212;-63
2021/04/09 03:36:27;;;;;;;10.93;8.55;;;;;;;1.61;74.90;100090.38;1789651;80;21105;-63
2021/04/09 03:38:54;;;;;;;10.55;8.23;;;;;;;1.62;74.87;100090.81;1789597;80;21201;-63
2021/04/09 03:41:23;;;;;;;13.65;9.15;;;;;;;1.66;74.98;100097.67;1789553;78;21149;-63
2021/04/09 03:43:50;;;;;;;15.32;9.18;;;;;;;1.77;74.83;100090.90;1789686;80;21066;-63
2021/04/09 03:46:18;;;;;;;10.18;8.78;;;;;;;1.80;74.52;100094.73;1789593;79;21043;-62
2021/04/09 03:48:47;;;;;;;13.62;8.55;;;;;;;1.78;74.37;100102.88;1789630;79;21042;-62
2021/04/09 03:51:16;;;;;;;14.25;8.60;;;;;;;1.76;74.28;100105.86;1789563;80;21188;-62
2021/04/09 03:53:44;;;;;;;18.23;10.72;;;;;;;1.73;74.33;100108.40;1789551;79;21106;-62
2021/04/09 03:56:11;;;;;;;13.98;8.88;;;;;;;1.68;74.35;100110.08;1789599;79;21470;-62
2021/04/09 03:58:39;;;;;;;25.70;10.93;;;;;;;1.65;74.43;100112.63;1789667;80;21034;-62
2021/04/09 04:01:06;;;;;;;16.60;9.45;;;;;;;1.63;74.56;100119.45;1789583;79;21110;-62
2021/04/09 04:03:34;;;;;;;18.10;9.80;;;;;;;1.62;74.59;100125.42;1789597;80;21537;-62
2021/04/09 04:06:03;;;;;;;12.47;9.38;;;;;;;1.62;74.60;100126.28;1789536;79;21138;-62
2021/04/09 04:08:31;;;;;;;15.72;10.72;;;;;;;1.65;74.62;100132.72;1789673;78;21494;-62
2021/04/09 04:10:58;;;;;;;16.42;11.63;;;;;;;1.71;74.69;100139.59;1789553;80;21046;-62
2021/04/09 04:13:28;;;;;;;22.95;10.70;;;;;;;1.78;74.71;100142.63;1789609;80;21083;-62
2021/04/09 04:15:55;;;;;;;9.93;8.58;;;;;;;1.87;74.68;100141.37;1789602;79;21441;-62
2021/04/09 04:18:24;;;;;;;13.48;8.55;;;;;;;2.09;74.80;100152.58;1789614;80;21121;-62
2021/04/09 04:20:51;;;;;;;10.43;8.88;;;;;;;2.47;74.35;100147.55;1789558;80;21070;-63
2021/04/09 04:23:20;;;;;;;10.72;8.38;;;;;;;2.88;73.52;100145.02;1789587;80;21070;-63
2021/04/09 04:25:47;;;;;;;11.15;8.13;;;;;;;3.28;72.60;100151.00;1789608;80;21495;-63
2021/04/09 04:28:15;;;;;;;14.03;9.35;;;;;;;3.70;71.42;100152.64;1789534;79;21221;-63
2021/04/09 04:30:49;;;;;;;12.33;9.65;;;;;;;4.09;70.20;100150.34;1789567;79;21792;-64
2021/04/09 04:33:12;;;;;;;11.20;9.73;;;;;;;4.45;69.07;100157.02;1788686;78;21641;-64
2021/04/09 04:35:39;;;;;;;10.63;8.40;;;;;;;4.80;68.08;100163.23;1789608;79;21042;-61
2021/04/09 04:38:07;;;;;;;9.90;8.35;;;;;;;5.14;66.97;100164.28;1789597;80;21140;-63
2021/04/09 04:40:35;;;;;;;14.80;8.18;;;;;;;5.49;66.00;100170.41;1789510;78;21203;-62
2021/04/09 04:43:04;;;;;;;26.42;9.18;;;;;;;5.84;64.58;100170.88;1789478;80;21066;-63
2021/04/09 04:45:32;;;;;;;11.90;8.00;;;;;;;6.15;63.48;100171.86;1789575;79;21030;-63
2021/04/09 04:48:00;;;;;;;8.03;7.17;;;;;;;6.32;62.47;100172.50;1789527;80;21468;-63
2021/04/09 04:50:27;;;;;;;9.53;8.00;;;;;;;6.50;61.82;100178.71;1789537;80;21044;-63
2021/04/09 04:52:55;;;;;;;13.60;8.18;;;;;;;6.70;60.98;100180.16;1789485;79;21370;-63
2021/04/09 04:55:24;;;;;;;12.25;7.70;;;;;;;6.74;60.14;100181.39;1789532;79;21161;-64
2021/04/09 04:57:51;;;;;;;16.27;7.90;;;;;;;6.59;59.64;100194.55;1789523;79;21055;-63
2021/04/09 05:00:22;;;;;;;9.75;8.43;;;;;;;6.43;60.53;100195.16;1789516;80;21054;-63
2021/04/09 05:02:49;;;;;;;16.00;8.10;;;;;;;6.39;60.07;100193.52;1789542;80;21063;-63
2021/04/09 05:05:17;;;;;;;16.67;8.90;;;;;;;6.14;60.50;100207.60;1789482;79;21525;-62
2021/04/09 05:07:44;;;;;;;13.10;8.40;;;;;;;5.92;61.13;100212.16;1789525;79;21549;-63
2021/04/09 05:10:12;;;;;;;12.53;8.85;;;;;;;5.87;61.81;100212.59;1789467;79;21133;-63
2021/04/09 05:12:40;;;;;;;11.22;8.08;;;;;;;5.93;61.95;100213.86;1789505;80;21051;-63
2021/04/09 05:15:09;;;;;;;16.45;9.55;;;;;;;5.98;62.12;100219.84;1790026;78;21038;-65
2021/04/09 05:17:38;;;;;;;11.85;8.68;;;;;;;5.92;62.03;100226.78;1817634;77;22346;-66
2021/04/09 05:20:10;;;;;;;13.18;9.13;;;;;;;5.79;62.34;100229.47;1823542;76;21951;-64
2021/04/09 05:22:42;;;;;;;18.82;8.73;;;;;;;5.61;62.64;100223.60;1821174;77;21145;-67
2021/04/09 05:25:11;;;;;;;12.68;8.83;;;;;;;5.54;63.16;100232.71;1836228;77;21093;-63
2021/04/09 05:27:39;;;;;;;14.18;8.75;;;;;;;5.55;63.29;100229.70;1847965;77;21135;-63
2021/04/09 05:30:08;;;;;;;11.18;8.60;;;;;;;5.58;63.63;100228.38;1819485;77;21367;-64
2021/04/09 05:32:36;;;;;;;11.08;8.88;;;;;;;5.70;63.48;100228.26;1793937;78;21142;-63
2021/04/09 05:35:05;;;;;;;12.80;10.32;;;;;;;5.77;63.22;100232.50;1823461;77;21150;-67
2021/04/09 05:37:33;;;;;;;19.85;11.05;;;;;;;5.91;63.06;100232.38;1841208;77;21162;-65
2021/04/09 05:40:01;;;;;;;17.70;11.05;;;;;;;6.11;63.01;100229.15;1829331;77;21587;-65
2021/04/09 05:42:28;;;;;;;13.38;9.35;;;;;;;6.27;62.61;100228.53;1845181;77;22273;-65
2021/04/09 05:44:56;;;;;;;11.83;10.03;;;;;;;6.41;62.19;100224.04;1853473;77;21645;-63
2021/04/09 05:47:25;;;;;;;19.57;10.20;;;;;;;6.36;61.61;100231.02;1854733;77;21141;-64
2021/04/09 05:49:53;;;;;;;11.38;10.18;;;;;;;6.22;62.11;100234.17;1828040;77;21550;-63
2021/04/09 05:52:21;;;;;;;15.30;10.40;;;;;;;6.09;62.52;100237.78;1823607;77;21173;-63
2021/04/09 05:54:49;;;;;;;17.30;11.12;;;;;;;5.95;62.94;100240.95;1823848;77;21187;-64
2021/04/09 05:57:17;;;;;;;11.65;10.32;;;;;;;5.87;63.17;100246.16;1823294;78;21474;-66
2021/04/09 05:59:47;;;;;;;19.95;12.20;;;;;;;5.79;63.44;100247.54;1797326;78;21149;-64
2021/04/09 06:02:15;;;;;;;13.30;9.98;;;;;;;5.79;63.81;100248.83;1822040;78;21235;-66
2021/04/09 06:04:42;;;;;;;16.07;11.30;;;;;;;5.84;63.50;100245.75;1823673;78;21137;-65
2021/04/09 06:07:17;;;;;;;14.87;11.25;;;;;;;5.79;63.80;100247.54;1829916;77;21559;-64
2021/04/09 06:09:48;;;;;;;12.50;11.20;;;;;;;5.82;64.00;100253.94;1808772;78;21170;-64
2021/04/09 06:12:16;;;;;;;12.20;10.35;;;;;;;5.94;63.95;100252.16;1821691;77;21134;-63
2021/04/09 06:14:44;;;;;;;13.80;10.85;;;;;;;5.98;63.36;100247.39;1806546;78;21589;-64
2021/04/09 06:17:12;;;;;;;11.95;10.60;;;;;;;5.98;63.38;100253.41;1813151;77;21618;-64
2021/04/09 06:19:43;;;;;;;14.83;11.95;;;;;;;6.04;63.69;100261.06;1823410;78;21177;-66
2021/04/09 06:22:15;;;;;;;12.28;10.38;;;;;;;6.05;63.59;100258.91;1824400;77;21665;-65
2021/04/09 06:24:43;;;;;;;15.28;10.05;;;;;;;6.00;63.76;100266.27;1848196;77;21185;-68
2021/04/09 06:27:11;;;;;;;15.72;11.83;;;;;;;5.99;64.20;100269.33;1857199;75;21126;-63
2021/04/09 06:29:39;;;;;;;13.35;10.63;;;;;;;5.97;63.93;100270.20;1856662;77;21629;-64
2021/04/09 06:32:09;;;;;;;16.00;11.78;;;;;;;5.90;64.18;100269.83;1843160;77;21151;-63
2021/04/09 06:34:37;;;;;;;12.40;11.10;;;;;;;5.84;64.32;100275.44;1839692;77;21579;-65
2021/04/09 06:37:05;;;;;;;15.08;11.85;;;;;;;5.84;64.59;100278.45;1834822;78;21435;-66
2021/04/09 06:39:32;;;;;;;18.17;12.45;;;;;;;5.90;64.93;100289.20;1834446;78;21229;-67
2021/04/09 06:42:00;;;;;;;61.63;17.42;;;;;;;5.92;64.81;100284.87;1834178;77;21150;-68
2021/04/09 06:44:28;;;;;;;18.00;11.97;;;;;;;5.97;64.97;100284.41;1834894;78;21190;-65
2021/04/09 06:46:58;;;;;;;12.90;11.35;;;;;;;6.09;64.80;100286.85;1835167;78;21653;-62
2021/04/09 06:49:27;;;;;;;21.30;10.90;;;;;;;6.19;64.62;100285.91;1834270;78;21175;-69
2021/04/09 06:51:55;;;;;;;20.77;12.65;;;;;;;6.26;64.54;100286.23;1829086;77;21145;-63
2021/04/09 06:54:23;;;;;;;12.13;10.82;;;;;;;6.35;64.19;100282.70;1805086;78;21181;-64
2021/04/09 06:56:51;;;;;;;14.50;10.55;;;;;;;6.47;64.05;100285.98;1785761;79;21195;-65
2021/04/09 06:59:30;;;;;;;22.25;11.65;;;;;;;6.70;63.74;100288.30;1785410;80;21134;-64
2021/04/09 07:01:58;;;;;;;19.62;11.65;;;;;;;6.93;63.04;100289.73;1785096;78;21192;-65
2021/04/09 07:04:26;;;;;;;16.67;11.30;;;;;;;7.01;61.90;100295.20;1813314;77;21149;-65
2021/04/09 07:06:53;;;;;;;18.40;11.57;;;;;;;6.99;61.69;100295.69;1818158;78;21193;-65
2021/04/09 07:09:21;;;;;;;13.00;11.15;;;;;;;7.13;61.99;100298.06;1817968;78;22281;-66
2021/04/09 07:11:52;;;;;;;15.93;11.65;;;;;;;7.32;61.31;100301.24;1818045;78;22246;-66
2021/04/09 07:14:20;;;;;;;20.20;11.55;;;;;;;7.40;61.15;100293.76;1817968;78;21162;-67
2021/04/09 07:16:57;;;;;;;17.25;12.70;;;;;;;7.45;61.17;100291.11;1760818;80;21243;-65
2021/04/09 07:19:33;;;;;;;27.45;11.30;;;;;;;7.49;60.62;100300.54;1785846;79;21161;-67
2021/04/09 07:22:04;;;;;;;13.68;10.38;;;;;;;7.42;60.40;100292.00;1785819;79;21266;-65
2021/04/09 07:24:33;;;;;;;17.27;12.13;;;;;;;7.40;60.38;100307.99;1806972;78;21161;-66
2021/04/09 07:27:00;;;;;;;21.55;13.18;;;;;;;7.34;60.05;100305.52;1813615;77;21122;-65
2021/04/09 07:29:35;;;;;;;12.45;10.65;;;;;;;7.25;60.31;100305.64;1818194;78;21165;-66
2021/04/09 07:32:16;;;;;;;17.02;10.28;;;;;;;7.23;60.04;100313.86;1818303;77;21146;-68
2021/04/09 07:34:54;;;;;;;16.85;11.22;;;;;;;7.20;59.96;100312.61;1820825;77;21427;-68
2021/04/09 07:37:23;;;;;;;17.00;11.53;;;;;;;7.14;59.99;100314.86;1812741;78;21189;-69
2021/04/09 07:39:55;;;;;;;16.93;10.58;;;;;;;7.13;60.82;100320.06;1823000;78;21165;-64
2021/04/09 07:42:31;;;;;;;13.05;11.40;;;;;;;7.18;60.46;100321.71;1824192;77;21440;-67
2021/04/09 07:45:01;;;;;;;15.23;10.82;;;;;;;7.20;60.13;100319.93;1823090;78;21470;-66
2021/04/09 07:47:29;;;;;;;12.68;10.85;;;;;;;7.28;60.36;100315.95;1823399;78;21577;-66
2021/04/09 07:50:06;;;;;;;19.52;12.18;;;;;;;7.40;60.36;100327.41;1823812;78;21169;-65
2021/04/09 07:52:49;;;;;;;13.25;11.90;;;;;;;7.53;59.83;100328.95;1823405;78;21625;-69
2021/04/09 07:55:22;;;;;;;20.08;11.95;;;;;;;7.59;59.58;100324.13;1822866;78;21181;-65
2021/04/09 07:57:50;;;;;;;12.45;11.25;;;;;;;7.62;59.62;100325.34;1823597;77;21254;-64
2021/04/09 08:00:26;;;;;;;13.58;10.32;;;;;;;7.65;58.82;100327.03;1823052;77;21581;-68
2021/04/09 08:02:56;;;;;;;12.95;11.08;;;;;;;7.61;59.13;100328.37;1823892;77;22180;-66
2021/04/09 08:05:26;;;;;;;15.48;10.95;;;;;;;7.59;58.97;100324.95;1823071;78;21161;-65
2021/04/09 08:07:54;;;;;;;21.70;11.55;;;;;;;7.65;59.02;100337.39;1823897;78;21190;-66
2021/04/09 08:10:32;;;;;;;18.77;11.43;;;;;;;7.69;59.35;100332.14;1823046;77;21181;-65
2021/04/09 08:13:01;;;;;;;16.90;11.30;;;;;;;7.76;59.35;100327.30;1823419;77;24910;-66
2021/04/09 08:15:34;;;;;;;22.52;11.48;;;;;;;7.88;58.98;100332.26;1796105;77;21125;-67
2021/04/09 08:18:10;;;;;;;14.58;11.80;;;;;;;8.01;58.50;100334.19;1814985;77;21057;-65
2021/04/09 08:20:41;;;;;;;47.48;15.15;;;;;;;8.07;58.10;100328.05;1804624;77;21149;-69
2021/04/09 08:23:11;;;;;;;15.38;10.55;;;;;;;8.09;58.07;100328.45;1808538;78;21141;-66
2021/04/09 08:25:40;;;;;;;17.60;10.70;;;;;;;8.14;57.79;100331.81;1822673;77;21367;-68
2021/04/09 08:28:11;;;;;;;18.90;11.05;;;;;;;8.23;57.54;100332.93;1795866;78;21317;-66
2021/04/09 08:30:40;;;;;;;19.90;10.63;;;;;;;8.26;57.33;100325.10;1822962;78;21145;-66
2021/04/09 08:33:09;;;;;;;13.53;10.72;;;;;;;8.34;56.76;100330.62;1823417;78;21157;-66
2021/04/09 08:35:38;;;;;;;16.07;11.28;;;;;;;8.42;56.28;100325.70;1794573;77;21146;-66
2021/04/09 08:38:06;;;;;;;11.83;10.18;;;;;;;8.51;56.43;100328.13;1846010;77;22132;-69
2021/04/09 08:40:35;;;;;;;26.02;13.25;;;;;;;8.76;56.11;100328.50;1846007;77;21626;-66
2021/04/09 08:43:03;;;;;;;28.17;12.28;;;;;;;8.96;55.61;100333.27;1845690;77;21158;-67
2021/04/09 08:45:35;;;;;;;19.32;10.95;;;;;;;9.05;55.21;100325.72;1846824;77;21134;-66
2021/04/09 08:48:10;;;;;;;17.12;9.80;;;;;;;9.03;54.53;100324.45;1846929;76;21216;-68
2021/04/09 08:50:38;;;;;;;13.10;10.05;;;;;;;8.91;54.65;100333.81;1817891;77;21896;-68
2021/04/09 08:53:06;;;;;;;31.25;16.73;;;;;;;8.91;54.77;100325.58;1791690;77;21158;-66
2021/04/09 08:55:38;;;;;;;11.28;9.85;;;;;;;8.96;54.40;100328.94;1847851;76;21153;-66
2021/04/09 08:58:14;;;;;;;10.68;9.58;;;;;;;8.97;54.64;100325.91;1846790;77;21150;-74
2021/04/09 09:00:42;;;;;;;12.05;9.93;;;;;;;9.14;54.82;100313.86;1844108;76;21586;-67
2021/04/09 09:03:27;;;;;;;14.83;10.65;;;;;;;9.29;53.92;100320.85;1846245;77;21368;-66
2021/04/09 09:06:07;;;;;;;12.40;10.68;;;;;;;9.29;53.40;100321.30;1845742;77;21213;-67
2021/04/09 09:08:51;;;;;;;17.35;9.85;;;;;;;9.04;53.67;100327.46;1845630;77;21143;-67
2021/04/09 09:11:55;;;;;;;14.83;9.55;;;;;;;8.73;53.91;100327.27;1845644;77;21122;-66
2021/04/09 09:14:37;;;;;;;18.42;11.05;;;;;;;8.60;54.75;100325.34;1845719;77;21235;-66
2021/04/09 09:17:28;;;;;;;12.05;10.30;;;;;;;8.69;55.01;100317.83;1829258;77;21191;-66
2021/04/09 09:20:11;;;;;;;13.03;9.93;;;;;;;8.99;54.07;100320.24;1821326;78;21253;-66
2021/04/09 09:22:47;;;;;;;10.90;9.90;;;;;;;9.30;53.36;100319.96;1820388;77;21141;-65
2021/04/09 09:25:15;;;;;;;11.75;9.75;;;;;;;9.57;52.11;100314.58;1844315;76;21143;-66
2021/04/09 09:27:51;;;;;;;14.53;9.78;;;;;;;9.66;52.61;100321.28;1846052;77;21174;-65
2021/04/09 09:30:37;;;;;;;19.00;10.10;;;;;;;9.52;52.52;100326.81;1854242;77;22194;-66
2021/04/09 09:33:29;;;;;;;13.55;9.20;;;;;;;9.37;52.13;100329.77;1854666;77;21505;-66
2021/04/09 09:36:09;;;;;;;15.43;9.48;;;;;;;9.10;52.08;100324.74;1839433;75;21573;-67
2021/04/09 09:38:50;;;;;;;13.68;9.78;;;;;;;8.96;52.73;100330.23;1791866;77;21154;-66
2021/04/09 09:41:39;;;;;;;18.82;10.95;;;;;;;9.02;51.96;100321.89;1816187;77;22371;-67
2021/04/09 09:44:28;;;;;;;13.40;9.48;;;;;;;9.21;51.84;100321.89;1810570;78;21575;-67
2021/04/09 09:46:59;;;;;;;11.90;8.63;;;;;;;9.53;51.37;100319.88;1816311;78;21250;-67
2021/04/09 09:49:28;;;;;;;12.00;9.25;;;;;;;9.87;50.50;100314.70;1817115;77;21577;-65
2021/04/09 09:51:57;;;;;;;9.48;8.55;;;;;;;10.11;49.51;100318.42;1816578;78;21642;-66
2021/04/09 09:54:32;;;;;;;20.43;9.60;;;;;;;10.17;48.59;100317.83;1816203;78;21146;-66
2021/04/09 09:57:40;;;;;;;11.25;10.05;;;;;;;10.07;49.20;100318.95;1817168;77;21622;-66
2021/04/09 10:00:10;;;;;;;12.23;8.78;;;;;;;9.95;49.22;100320.12;1831735;77;21566;-67
2021/04/09 10:02:38;;;;;;;13.88;9.05;;;;;;;9.72;49.38;100315.95;1815946;77;21162;-68
2021/04/09 10:05:08;;;;;;;10.38;8.35;;;;;;;9.58;49.55;100315.44;1815223;77;21157;-65
2021/04/09 10:07:36;;;;;;;15.53;8.43;;;;;;;9.50;48.63;100310.86;1816451;77;21146;-66
2021/04/09 10:10:06;;;;;;;13.55;9.78;;;;;;;9.58;48.50;100315.44;1816821;78;21191;-65
2021/04/09 10:12:34;;;;;;;11.95;9.18;;;;;;;9.74;48.72;100311.57;1815924;77;21180;-67
2021/04/09 10:15:03;;;;;;;11.48;9.28;;;;;;;9.83;49.12;100314.37;1815447;78;21187;-66
2021/04/09 10:17:33;;;;;;;15.40;9.73;;;;;;;9.74;49.29;100313.31;1815957;78;21146;-67
2021/04/09 10:20:04;;;;;;;22.75;10.00;;;;;;;9.61;49.33;100313.59;1816365;77;21174;-66
2021/04/09 10:22:32;;;;;;;13.32;8.13;;;;;;;9.68;49.04;100311.27;1790410;77;21691;-66
2021/04/09 10:25:00;;;;;;;15.05;8.10;;;;;;;9.88;48.61;100306.88;1816145;78;21177;-68
2021/04/09 10:27:30;;;;;;;12.65;7.05;;;;;;;10.13;47.43;100303.20;1791402;78;21207;-68
2021/04/09 10:29:58;;;;;;;12.78;7.80;;;;;;;10.32;46.09;100297.09;1814747;77;38338;-67
2021/04/09 10:32:26;;;;;;;12.80;7.80;;;;;;;10.42;44.85;100305.03;1815021;77;21161;-67
2021/04/09 10:34:54;;;;;;;13.75;8.55;;;;;;;10.45;44.79;100300.20;1815732;77;22217;-67
2021/04/09 10:37:25;;;;;;;10.65;7.75;;;;;;;10.48;45.39;100305.32;1822752;78;22194;-68
2021/04/09 10:39:53;;;;;;;11.08;8.38;;;;;;;10.51;45.79;100299.59;1823415;77;21452;-66
2021/04/09 10:42:21;;;;;;;11.55;7.35;;;;;;;10.64;45.26;100302.69;1823209;77;21550;-68
2021/04/09 10:44:49;;;;;;;9.70;7.53;;;;;;;10.62;44.67;100301.87;1823543;77;21133;-68
2021/04/09 10:47:17;;;;;;;7.28;6.08;;;;;;;10.49;44.11;100302.68;1823256;77;22313;-68
2021/04/09 10:49:45;;;;;;;9.10;6.60;;;;;;;10.45;42.89;100295.85;1770149;78;21176;-67
2021/04/09 10:52:17;;;;;;;6.83;6.12;;;;;;;10.47;41.75;100297.11;1823844;77;21621;-69
2021/04/09 10:54:47;;;;;;;6.40;5.60;;;;;;;10.64;41.31;100299.64;1823097;77;21535;-66
2021/04/09 10:57:20;;;;;;;9.78;6.85;;;;;;;10.89;40.91;100291.13;1823058;77;21477;-69
2021/04/09 10:59:50;;;;;;;8.25;6.58;;;;;;;11.06;41.22;100295.38;1822869;77;21582;-67
2021/04/09 11:02:25;;;;;;;27.30;7.00;;;;;;;11.01;41.23;100299.41;1823585;77;21189;-67
2021/04/09 11:04:58;;;;;;;13.78;6.10;;;;;;;10.86;41.78;100297.72;1822768;77;21173;-67
2021/04/09 11:07:43;;;;;;;;;;;;;;;10.77;41.29;100292.36;1826204;78;21637;-70
2021/04/09 11:10:31;;;;;;;10.63;5.62;;;;;;;10.76;39.80;100297.60;1818957;77;20268;-67
2021/04/09 11:13:00;;;;;;;6.80;5.37;;;;;;;10.67;39.25;100296.10;1823420;78;22408;-68
2021/04/09 11:15:39;;;;;;;6.97;4.72;;;;;;;10.66;39.09;100291.80;1822997;77;21598;-67
2021/04/09 11:18:07;;;;;;;5.62;4.70;;;;;;;10.61;38.19;100292.36;1811726;78;21159;-66
2021/04/09 11:20:40;;;;;;;8.80;5.03;;;;;;;10.52;37.51;100296.09;1812714;77;21150;-64
2021/04/09 11:23:10;;;;;;;5.10;4.33;;;;;;;10.41;37.57;100294.23;1812042;78;21174;-65
2021/04/09 11:25:47;;;;;;;9.20;4.65;;;;;;;10.30;37.04;100293.23;1823072;77;22227;-66
2021/04/09 11:28:26;;;;;;;4.67;4.17;;;;;;;10.26;37.38;100293.35;1823118;78;21169;-65
2021/04/09 11:31:08;;;;;;;9.05;4.67;;;;;;;10.30;36.60;100288.48;1823170;77;21162;-64
2021/04/09 11:33:39;;;;;;;5.03;4.20;;;;;;;10.30;36.95;100296.28;1823204;77;21148;-65
2021/04/09 11:36:19;;;;;;;4.40;3.92;;;;;;;10.24;36.71;100300.34;1822102;77;21011;-63
2021/04/09 11:38:53;;;;;;;4.87;3.42;;;;;;;10.11;37.13;100297.19;1791783;78;22247;-63
2021/04/09 11:41:31;;;;;;;4.22;2.47;;;;;;;10.03;35.40;100297.38;1819545;77;21110;-65
2021/04/09 11:44:01;;;;;;;4.58;2.70;;;;;;;9.94;34.21;100295.48;1820575;78;21141;-64